ADDS METAR Data INFO
IDs: Format: Raw Decoded Include TAF

Data at: 0054 UTC 21 Nov 2017

Region: TOP
KATL 210052Z 12003KT 10SM BKN200 BKN250 10/03 A3017 RMK AO2 SLP222 T01000028

KBOS 202354Z 24010KT 10SM FEW070 04/M06 A2999 RMK AO2 SLP155 T00441056 10056 20033 52021

KBWI 202354Z 23003KT 10SM CLR 05/M04 A3016 RMK AO2 SLP214 T00501044 10100 20050 55001

KCLE 210051Z 19015G27KT 10SM SCT250 06/M04 A2999 RMK AO2 PK WND 20027/0043 SLP160 T00561039

KCLT 210052Z 16004KT 10SM SCT250 07/M02 A3022 RMK AO2 SLP238 T00721022

KCVG 210052Z 18007KT 10SM BKN250 02/M02 A3005 RMK AO2 SLP183 T00221022

KDCA 210052Z 20009KT 10SM CLR 07/M03 A3019 RMK AO2 SLP222 T00721033

KDEN 202353Z 15006KT 10SM FEW160 BKN200 15/M13 A2984 RMK AO2 SLP070 T01501133 10206 20139 53022

KDFW 202353Z 17010KT 10SM SCT250 16/M01 A2997 RMK AO2 SLP146 T01561006 10194 20156 58006

KDTW 202353Z 20015KT 10SM SCT220 06/M01 A2988 RMK AO2 SLP124 T00561011 10089 20056 56006

KEWR 210051Z 23012KT 10SM SCT250 06/M04 A3012 RMK AO2 SLP198 T00561044

KFLL 202353Z 06011G18KT 10SM FEW036 BKN049 BKN250 24/19 A3002 RMK AO2 SLP166 T02390189 10256 20239 53005

KIAD 210052Z 17005KT 10SM CLR 05/M05 A3017 RMK AO2 SLP218 T00501050

KIAH 202353Z 14010KT 10SM FEW180 SCT250 15/09 A3006 RMK AO2 SLP181 T01500094 10200 20150 56006

KJFK 210051Z 24017G22KT 10SM FEW250 07/M02 A3013 RMK AO2 SLP202 T00721022

KLAS 202356Z 00000KT 10SM BKN200 BKN250 18/M13 A3007 RMK AO2 SLP176 T01781128 10183 20133 50002

KLAX 202353Z 25005KT 10SM FEW150 BKN200 21/06 A2999 RMK AO2 SLP154 T02060061 10222 20194 56008

KLGA 210051Z 24014G19KT 10SM SCT250 07/M05 A3011 RMK AO2 SLP195 T00721050

KMCO 202353Z 07006KT 10SM SCT050 SCT250 19/14 A3011 RMK AO2 SLP196 T01940144 10256 20194 53009

KMDW 202353Z 19016G27KT 10SM BKN250 09/01 A2976 RMK AO2 PK WND 20029/2334 SLP084 T00890011 10122 20089 56008

KMEM 202354Z 21003KT 10SM FEW250 09/M03 A3008 RMK AO2 SLP187 T00891028 10128 20083 55007

KMIA 202353Z 05007G16KT 10SM FEW028 SCT042 BKN050 24/19 A3003 RMK AO2 RAE04 SLP169 P0000 60009 T02440189 10267 20239 53006

KMSP 202353Z 24009KT 10SM FEW180 SCT220 OVC250 08/M01 A2945 RMK AO2 SLP979 T00831011 10089 20061 55004

KORD 210051Z 20017G28KT 10SM BKN250 09/00 A2973 RMK AO2 PK WND 20029/2354 SLP072 T00890000

KPDX 202353Z 00000KT 10SM FEW025 SCT043 SCT100 BKN230 12/08 A2995 RMK AO2 SLP140 60005 T01220083 10128 20100 51031

KPHL 202354Z 23006KT 10SM CLR 07/M03 A3015 RMK AO2 SLP210 T00671033 10089 20067 51006 $

KPHX 210051Z 00000KT 10SM SCT200 OVC250 23/M03 A2996 RMK AO2 SLP135 T02331033

KPIT 210051Z 19007KT 10SM CLR 03/M06 A3005 RMK AO2 SLP195 T00331056

KSAN 210051Z 32004KT 10SM FEW030 SCT120 BKN200 19/12 A3000 RMK AO2 SLP157 T01890122 $

KSEA 202353Z 22009KT 10SM FEW020 SCT040 SCT250 09/03 A2991 RMK AO2 SLP136 60021 T00940033 10100 20089 51041

KSFO 202356Z 01005KT 10SM BKN032 BKN075 17/11 A3008 RMK AO2 SLP186 T01670106 10172 20150 55001

KSLC 202354Z 00000KT 10SM SCT065 BKN100 08/01 A3009 RMK AO2 SLP187 T00830011 10083 20067 55013 VISNO NW RNWY

KSTL 210051Z 18014G20KT 10SM CLR 11/M02 A2986 RMK AO2 SLP117 T01061022

KTPA 202353Z 07006KT 10SM FEW045 FEW250 23/13 A3008 RMK AO2 SLP185 T02280133 10267 20228 53010